Latest Coastal Weather Observations for Low Rocky Point

IDT60701

Issued at 5:45 am EST Thursday 17 April 2014 (issued every 10 minutes, with the page automatically refreshed every 10 minutes)

About coastal observations | Map of coastal stations | Coastal observations for TAS | Marine services | Other Formats
Station Details ID: 097080 Name: LOW ROCKY POINT Lat: -42.98 Lon: 145.50 Height: 34.0 m
Data from the previous 72 hours. | See also: Recent months at Low Rocky Point
Date/Time
EST
Temp

°C
Wind Pressure Rain
since 9am
mm
Weather Cloud Vis
km
Sea
Height
m
Swell
Dir
 
Speed
knots
Gust
knots
hPa Trend Height
m
Period
s
Dir
17/05:30am 10.5 NNE 12 14 1019.4 - 0.0 - - - - - - -
17/05:00am 10.6 NNE 11 14 1019.4 - 0.0 - - - - - - -
17/04:30am 10.8 NNE 11 13 1019.5 - 0.0 - - - - - - -
17/04:00am 11.1 NNE 12 14 1019.3 - 0.0 - - - - - - -
17/03:30am 11.0 NNE 12 13 1019.3 - 0.0 - - - - - - -
17/03:00am 11.2 NNE 11 13 1019.3 - 0.0 - - - - - - -
17/02:30am 11.7 NNE 11 12 1019.3 - 0.0 - - - - - - -
17/02:00am 11.9 NNE 11 13 1019.4 - 0.0 - - - - - - -
17/01:30am 12.4 NNE 11 12 1019.6 - 0.0 - - - - - - -
17/01:00am 12.5 NNE 11 13 1019.6 - 0.0 - - - - - - -
17/12:30am 12.8 NNE 10 12 1019.7 - 0.0 - - - - - - -
17/12:00am 13.0 NNE 9 11 1019.8 - 0.0 - - - - - - -
 
Date/Time
EST
Temp

°C
Wind Pressure Rain
since 9am
mm
Weather Cloud Vis
km
Sea
Height
m
Swell
Dir
 
Speed
knots
Gust
knots
hPa Trend Height
m
Period
s
Dir
16/11:30pm 13.3 NNE 9 11 1020.0 - 0.0 - - - - - - -
16/11:00pm 13.3 NNE 8 10 1020.3 - 0.0 - - - - - - -
16/10:30pm 13.2 NNE 9 11 1020.2 - 0.0 - - - - - - -
16/10:00pm 13.4 NNE 9 11 1020.1 - 0.0 - - - - - - -
16/09:30pm 13.5 NNE 9 10 1020.1 - 0.0 - - - - - - -
16/09:00pm 13.5 N 8 9 1020.0 - 0.0 - - - - - - -
16/08:30pm 13.3 N 7 9 1020.0 - 0.0 - - - - - - -
16/08:00pm 13.2 N 7 9 1019.8 - 0.0 - - - - - - -
16/07:30pm 13.8 N 7 9 1019.8 - 0.0 - - - - - - -
16/07:00pm 14.1 NNW 7 9 1019.7 - 0.0 - - - - - - -
16/06:30pm 14.4 NNW 12 14 1019.7 - 0.0 - - - - - - -
16/06:00pm 14.5 NW 14 16 1019.6 - 0.0 - - - - - - -
16/05:30pm 14.4 NW 13 17 1019.9 - 0.0 - - - - - - -
16/05:00pm 14.6 WNW 18 22 1019.7 - 0.0 - - - - - - -
16/04:30pm 14.8 WNW 20 24 1019.5 - 0.0 - - - - - - -
16/04:00pm 15.3 WNW 19 23 1019.6 - 0.0 - - - - - - -
16/03:30pm 16.1 WNW 17 22 1019.5 - 0.0 - - - - - - -
16/03:00pm 16.2 NW 15 18 1019.4 - 0.0 - - - - - - -
16/02:30pm 16.2 NW 14 17 1019.3 - 0.0 - - - - - - -
16/02:00pm 16.8 NW 12 14 1019.3 - 0.0 - - - - - - -
16/01:30pm 16.6 NW 12 15 1019.5 - 0.0 - - - - - - -
16/01:00pm 17.1 NW 10 12 1019.8 - 0.0 - - - - - - -
16/12:30pm 16.9 NW 11 13 1020.2 - 0.0 - - - - - - -
16/12:00pm 16.2 NW 10 13 1020.7 - 0.0 - - - - - - -
16/11:30am 16.1 NW 16 20 1021.0 - 0.0 - - - - - - -
16/11:00am 17.2 NNW 10 13 1020.9 - 0.0 - - - - - - -
16/10:30am 17.8 N 9 11 1021.0 - 0.0 - - - - - - -
16/10:00am 16.9 NNE 9 13 1021.2 - 0.0 - - - - - - -
16/09:30am 15.9 NNE 10 14 1021.5 - 0.0 - - - - - - -
16/09:00am 14.0 NNE 11 14 1021.5 - 0.0 - - - - - - -
16/08:30am 13.6 NE 12 16 1021.5 - 0.0 - - - - - - -
16/08:00am 12.1 NE 13 16 1021.5 - 0.0 - - - - - - -
16/07:30am 10.6 NE 13 16 1021.5 - 0.0 - - - - - - -
16/07:00am 10.5 NE 13 16 1021.5 - 0.0 - - - - - - -
16/06:30am 10.5 NNE 13 15 1021.4 - 0.0 - - - - - - -
16/06:00am 10.5 NE 13 15 1021.4 - 0.0 - - - - - - -
16/05:30am 10.3 NE 13 16 1021.4 - 0.0 - - - - - - -
16/05:00am 10.5 NNE 13 15 1021.5 - 0.0 - - - - - - -
16/04:30am 10.8 NE 12 14 1021.6 - 0.0 - - - - - - -
16/04:00am 10.9 NNE 12 14 1021.7 - 0.0 - - - - - - -
16/03:30am 11.3 NNE 12 14 1021.9 - 0.0 - - - - - - -
16/03:00am 11.1 NNE 11 13 1022.1 - 0.0 - - - - - - -
16/02:30am 11.4 NNE 11 13 1022.5 - 0.0 - - - - - - -
16/02:00am 11.4 NNE 11 13 1022.8 - 0.0 - - - - - - -
16/01:30am 11.8 NNE 11 13 1023.1 - 0.0 - - - - - - -
16/01:00am 11.6 NNE 11 13 1023.3 - 0.0 - - - - - - -
16/12:30am 11.6 NNE 11 13 1023.4 - 0.0 - - - - - - -
16/12:00am 11.5 NNE 11 13 1023.3 - 0.0 - - - - - - -
 
Date/Time
EST
Temp

°C
Wind Pressure Rain
since 9am
mm
Weather Cloud Vis
km
Sea
Height
m
Swell
Dir
 
Speed
knots
Gust
knots
hPa Trend Height
m
Period
s
Dir
15/11:30pm 11.8 NNE 11 13 1023.6 - 0.0 - - - - - - -
15/11:00pm 11.6 NNE 12 14 1023.8 - 0.0 - - - - - - -
15/10:30pm 11.7 NNE 11 12 1023.9 - 0.0 - - - - - - -
15/10:00pm 12.0 NNE 11 13 1023.9 - 0.0 - - - - - - -
15/09:30pm 12.3 N 9 11 1024.0 - 0.0 - - - - - - -
15/09:00pm 12.3 NNE 11 13 1023.6 - 0.0 - - - - - - -
15/08:30pm 12.4 NNE 11 13 1023.4 - 0.0 - - - - - - -
15/08:00pm 12.5 NE 8 10 1023.3 - 0.0 - - - - - - -
15/07:30pm 12.8 E 6 6 1023.4 - 0.0 - - - - - - -
15/07:00pm 13.6 SE 7 9 1023.5 - 0.0 - - - - - - -
15/06:30pm 14.0 SSE 9 12 1023.3 - 0.0 - - - - - - -
15/06:00pm 14.1 SE 11 13 1023.1 - 0.0 - - - - - - -
15/05:30pm 14.6 SSE 12 16 1023.0 - 0.0 - - - - - - -
15/05:00pm 15.1 SSE 13 16 1022.8 - 0.0 - - - - - - -
15/04:30pm 15.9 SSE 13 17 1022.9 - 0.0 - - - - - - -
15/04:00pm 15.8 SSE 12 16 1023.0 - 0.0 - - - - - - -
15/03:30pm 16.7 SSE 11 15 1023.2 - 0.0 - - - - - - -
15/03:00pm 16.4 SSE 11 14 1023.3 - 0.0 - - - - - - -
15/02:30pm 16.8 SSE 11 14 1023.6 - 0.0 - - - - - - -
15/02:00pm 17.2 SSE 12 16 1023.7 - 0.0 - - - - - - -
15/01:30pm 17.8 SSE 11 14 1023.8 - 0.0 - - - - - - -
15/01:00pm 16.8 SSE 11 15 1024.2 - 0.0 - - - - - - -
15/12:30pm 15.7 SSE 10 12 1024.6 - 0.0 - - - - - - -
15/12:00pm 16.2 SSE 10 13 1025.0 - 0.0 - - - - - - -
15/11:30am 15.8 SSE 8 11 1025.1 - 0.0 - - - - - - -
15/11:00am 16.3 SE 8 10 1025.5 - 0.0 - - - - - - -
15/10:30am 15.2 SE 8 11 1025.5 - 0.0 - - - - - - -
15/10:00am 14.3 SE 8 11 1025.6 - 0.0 - - - - - - -
15/09:30am 13.5 SE 9 11 1025.6 - 0.0 - - - - - - -
15/09:00am 13.1 ESE 9 11 1025.7 - 1.2 - - - - - - -
15/08:30am 12.7 ESE 9 11 1025.7 - 1.2 - - - - - - -
15/08:00am 12.2 ESE 10 11 1025.6 - 1.2 - - - - - - -
15/07:30am 12.0 ESE 10 13 1025.5 - 1.2 - - - - - - -
15/07:00am 11.8 SE 8 11 1025.2 - 1.2 - - - - - - -
15/06:30am 11.6 ESE 9 11 1025.1 - 1.2 - - - - - - -
15/06:00am 11.7 ESE 9 13 1025.0 - 1.2 - - - - - - -
15/05:30am 11.8 ESE 12 16 1024.9 - 1.2 - - - - - - -
15/05:00am 11.9 SE 13 17 1024.8 - 1.2 - - - - - - -
15/04:30am 12.0 SE 13 16 1025.0 - 1.2 - - - - - - -
15/04:00am 12.1 SE 13 17 1024.9 - 1.2 - - - - - - -
15/03:30am 12.1 SE 12 15 1024.9 - 1.2 - - - - - - -
15/03:00am 12.2 ESE 11 15 1024.9 - 1.2 - - - - - - -
15/02:30am 12.4 SE 11 15 1025.1 - 1.2 - - - - - - -
15/02:00am 12.3 SE 13 17 1025.1 - 1.2 - - - - - - -
15/01:30am 12.4 SE 11 15 1025.2 - 1.2 - - - - - - -
15/01:00am 12.5 SE 13 16 1025.1 - 1.2 - - - - - - -
15/12:30am 12.5 SE 12 16 1025.1 - 1.2 - - - - - - -
15/12:00am 12.4 SE 12 16 1025.1 - 1.2 - - - - - - -
 
Date/Time
EST
Temp

°C
Wind Pressure Rain
since 9am
mm
Weather Cloud Vis
km
Sea
Height
m
Swell
Dir
 
Speed
knots
Gust
knots
hPa Trend Height
m
Period
s
Dir
14/11:30pm 12.4 SE 14 17 1025.1 - 1.2 - - - - - - -
14/11:00pm 12.4 SE 14 19 1025.2 - 1.2 - - - - - - -
14/10:30pm 12.5 SE 16 20 1025.2 - 1.2 - - - - - - -
14/10:00pm 12.6 SE 16 21 1025.3 - 1.2 - - - - - - -
14/09:30pm 12.7 SE 17 21 1025.2 - 1.2 - - - - - - -
14/09:00pm 12.5 SE 16 23 1025.3 - 1.2 - - - - - - -
14/08:30pm 12.5 SE 17 23 1025.2 - 1.2 - - - - - - -
14/08:00pm 12.5 SE 17 22 1025.0 - 1.2 - - - - - - -
14/07:30pm 12.8 SSE 17 21 1025.0 - 1.2 - - - - - - -
14/07:00pm 12.7 SSE 17 22 1024.9 - 1.2 - - - - - - -
14/06:30pm 12.5 SSE 16 20 1024.6 - 1.2 - - - - - - -
14/06:00pm 12.7 SSE 16 21 1024.4 - 1.2 - - - - - - -
14/05:30pm 12.7 SSE 14 19 1024.3 - 1.2 - - - - - - -
14/05:00pm 13.0 SSE 15 19 1024.2 - 1.2 - - - - - - -
14/04:30pm 13.0 SSE 14 17 1024.1 - 1.2 - - - - - - -
14/04:00pm 13.4 SSE 13 17 1024.0 - 1.2 - - - - - - -
14/03:30pm 13.5 S 15 19 1023.9 - 1.2 - - - - - - -
14/03:00pm 13.9 S 14 19 1023.5 - 1.2 Rain - - - - - -
14/02:30pm 15.0 WNW 9 11 1023.7 - 0.2 - - - - - - -
14/02:00pm 15.2 NW 9 11 1023.8 - 0.2 - - - - - - -
14/01:30pm 15.8 WNW 10 11 1023.9 - 0.2 - - - - - - -
14/01:00pm 15.0 WNW 9 11 1024.1 - 0.2 - - - - - - -
14/12:30pm 14.6 WNW 11 13 1024.4 - 0.2 - - - - - - -
14/12:00pm 14.0 NW 7 9 1024.6 - 0.2 Rain - - - - - -
14/11:30am 14.0 WNW 5 7 1024.8 - 0.0 - - - - - - -
14/11:00am 14.2 NNW 6 10 1024.7 - 0.0 - - - - - - -
14/10:30am 14.1 NNW 6 7 1024.8 - 0.0 - - - - - - -
14/10:00am 13.6 NNW 6 8 1024.9 - 0.0 - - - - - - -
14/09:30am 13.6 N 6 8 1024.9 - 0.0 - - - - - - -
14/09:00am 13.4 N 6 7 1024.8 - 1.2 - - - - - - -
14/08:30am 12.8 N 7 8 1024.6 - 1.2 - - - - - - -
14/08:00am 12.2 N 7 9 1024.6 - 1.2 - - - - - - -
14/07:30am 11.8 N 7 8 1024.4 - 1.2 - - - - - - -
14/07:00am 11.5 N 7 9 1024.2 - 1.2 - - - - - - -
14/06:30am 11.1 NNE 8 9 1024.1 - 1.2 - - - - - - -
14/06:00am 10.8 NNE 9 9 1024.0 - 1.2 - - - - - - -

Other Formats:

Comma delimited format used in spreadsheet applications
http://www.bom.gov.au/fwo/IDT60701/IDT60701.95961.axf

JavaScript Object Notation format (JSON) in row-major order
http://www.bom.gov.au/fwo/IDT60701/IDT60701.95961.json